sensor_id;sensor_type;location;lat;lon;timestamp;P1;durP1;ratioP1;P2;durP2;ratioP2
79369;SDS011;68835;53.096;17.932;2023-09-07T00:03:36;11.10;;;5.50;;
79369;SDS011;68835;53.096;17.932;2023-09-07T00:06:07;11.60;;;5.50;;
79369;SDS011;68835;53.096;17.932;2023-09-07T00:08:35;9.00;;;5.00;;
79369;SDS011;68835;53.096;17.932;2023-09-07T00:11:03;12.20;;;5.60;;
79369;SDS011;68835;53.096;17.932;2023-09-07T00:13:33;15.70;;;6.60;;
79369;SDS011;68835;53.096;17.932;2023-09-07T00:16:02;11.70;;;5.50;;
79369;SDS011;68835;53.096;17.932;2023-09-07T00:18:31;12.20;;;6.10;;
79369;SDS011;68835;53.096;17.932;2023-09-07T00:20:59;10.30;;;5.70;;
79369;SDS011;68835;53.096;17.932;2023-09-07T00:23:28;12.80;;;5.80;;
79369;SDS011;68835;53.096;17.932;2023-09-07T00:25:56;9.50;;;5.50;;
79369;SDS011;68835;53.096;17.932;2023-09-07T00:28:23;11.40;;;5.90;;
79369;SDS011;68835;53.096;17.932;2023-09-07T00:30:51;11.40;;;5.30;;
79369;SDS011;68835;53.096;17.932;2023-09-07T00:35:45;10.50;;;5.30;;
79369;SDS011;68835;53.096;17.932;2023-09-07T00:40:42;10.60;;;5.60;;
79369;SDS011;68835;53.096;17.932;2023-09-07T00:43:11;10.70;;;6.00;;
79369;SDS011;68835;53.096;17.932;2023-09-07T00:45:39;11.60;;;5.70;;
79369;SDS011;68835;53.096;17.932;2023-09-07T00:48:08;7.70;;;5.20;;
79369;SDS011;68835;53.096;17.932;2023-09-07T00:50:36;10.80;;;5.00;;
79369;SDS011;68835;53.096;17.932;2023-09-07T00:53:03;9.80;;;4.60;;
79369;SDS011;68835;53.096;17.932;2023-09-07T00:55:33;11.80;;;5.20;;
79369;SDS011;68835;53.096;17.932;2023-09-07T00:58:02;12.30;;;5.90;;
79369;SDS011;68835;53.096;17.932;2023-09-07T01:00:31;11.50;;;6.00;;
79369;SDS011;68835;53.096;17.932;2023-09-07T01:03:00;10.40;;;5.60;;
79369;SDS011;68835;53.096;17.932;2023-09-07T01:05:38;10.90;;;5.20;;
79369;SDS011;68835;53.096;17.932;2023-09-07T01:08:15;11.50;;;5.90;;
79369;SDS011;68835;53.096;17.932;2023-09-07T01:10:52;14.00;;;5.90;;
79369;SDS011;68835;53.096;17.932;2023-09-07T01:13:19;11.10;;;6.10;;
79369;SDS011;68835;53.096;17.932;2023-09-07T01:15:47;8.70;;;5.50;;
79369;SDS011;68835;53.096;17.932;2023-09-07T01:18:15;10.30;;;5.90;;
79369;SDS011;68835;53.096;17.932;2023-09-07T01:20:44;11.40;;;5.80;;
79369;SDS011;68835;53.096;17.932;2023-09-07T01:23:14;11.10;;;5.80;;
79369;SDS011;68835;53.096;17.932;2023-09-07T01:25:42;11.50;;;5.70;;
79369;SDS011;68835;53.096;17.932;2023-09-07T01:28:10;12.30;;;6.20;;
79369;SDS011;68835;53.096;17.932;2023-09-07T01:33:05;9.90;;;6.10;;
79369;SDS011;68835;53.096;17.932;2023-09-07T01:35:33;9.80;;;5.50;;
79369;SDS011;68835;53.096;17.932;2023-09-07T01:38:02;14.30;;;6.30;;
79369;SDS011;68835;53.096;17.932;2023-09-07T01:40:30;10.70;;;5.90;;
79369;SDS011;68835;53.096;17.932;2023-09-07T01:42:57;11.20;;;5.50;;
79369;SDS011;68835;53.096;17.932;2023-09-07T01:45:24;14.60;;;6.60;;
79369;SDS011;68835;53.096;17.932;2023-09-07T01:50:19;10.40;;;5.70;;
79369;SDS011;68835;53.096;17.932;2023-09-07T01:55:17;11.30;;;5.60;;
79369;SDS011;68835;53.096;17.932;2023-09-07T01:57:44;13.40;;;6.00;;
79369;SDS011;68835;53.096;17.932;2023-09-07T02:02:42;11.00;;;5.40;;
79369;SDS011;68835;53.096;17.932;2023-09-07T02:05:10;13.00;;;6.50;;
79369;SDS011;68835;53.096;17.932;2023-09-07T02:07:37;17.80;;;7.00;;
79369;SDS011;68835;53.096;17.932;2023-09-07T02:10:05;15.50;;;7.30;;
79369;SDS011;68835;53.096;17.932;2023-09-07T02:12:33;12.10;;;6.40;;
79369;SDS011;68835;53.096;17.932;2023-09-07T02:17:29;9.10;;;5.80;;
79369;SDS011;68835;53.096;17.932;2023-09-07T02:19:57;17.10;;;7.70;;
79369;SDS011;68835;53.096;17.932;2023-09-07T02:22:25;17.80;;;8.50;;
79369;SDS011;68835;53.096;17.932;2023-09-07T02:27:19;15.20;;;7.80;;
79369;SDS011;68835;53.096;17.932;2023-09-07T02:29:46;12.60;;;7.00;;
79369;SDS011;68835;53.096;17.932;2023-09-07T02:32:15;15.80;;;8.40;;
79369;SDS011;68835;53.096;17.932;2023-09-07T02:34:42;14.20;;;7.50;;
79369;SDS011;68835;53.096;17.932;2023-09-07T02:37:10;12.50;;;6.60;;
79369;SDS011;68835;53.096;17.932;2023-09-07T02:42:04;18.70;;;9.20;;
79369;SDS011;68835;53.096;17.932;2023-09-07T02:49:27;17.90;;;7.40;;
79369;SDS011;68835;53.096;17.932;2023-09-07T02:54:22;16.10;;;7.70;;
79369;SDS011;68835;53.096;17.932;2023-09-07T02:56:51;17.70;;;7.60;;
79369;SDS011;68835;53.096;17.932;2023-09-07T02:59:18;18.50;;;8.40;;
79369;SDS011;68835;53.096;17.932;2023-09-07T03:01:47;21.10;;;9.10;;
79369;SDS011;68835;53.096;17.932;2023-09-07T03:06:42;21.50;;;9.70;;
79369;SDS011;68835;53.096;17.932;2023-09-07T03:11:38;17.20;;;7.50;;
79369;SDS011;68835;53.096;17.932;2023-09-07T03:14:05;15.70;;;7.70;;
79369;SDS011;68835;53.096;17.932;2023-09-07T03:19:00;20.00;;;9.40;;
79369;SDS011;68835;53.096;17.932;2023-09-07T03:21:27;35.10;;;12.50;;
79369;SDS011;68835;53.096;17.932;2023-09-07T03:23:57;34.90;;;13.10;;
79369;SDS011;68835;53.096;17.932;2023-09-07T03:26:24;19.40;;;9.20;;
79369;SDS011;68835;53.096;17.932;2023-09-07T03:28:52;22.10;;;10.00;;
79369;SDS011;68835;53.096;17.932;2023-09-07T03:31:19;24.90;;;11.30;;
79369;SDS011;68835;53.096;17.932;2023-09-07T03:33:47;20.00;;;9.60;;
79369;SDS011;68835;53.096;17.932;2023-09-07T03:36:14;24.90;;;11.90;;
79369;SDS011;68835;53.096;17.932;2023-09-07T03:38:42;27.40;;;10.70;;
79369;SDS011;68835;53.096;17.932;2023-09-07T03:41:11;24.40;;;10.30;;
79369;SDS011;68835;53.096;17.932;2023-09-07T03:46:08;30.40;;;11.30;;
79369;SDS011;68835;53.096;17.932;2023-09-07T03:48:36;28.50;;;11.60;;
79369;SDS011;68835;53.096;17.932;2023-09-07T03:51:06;31.40;;;11.10;;
79369;SDS011;68835;53.096;17.932;2023-09-07T03:53:34;36.00;;;13.10;;
79369;SDS011;68835;53.096;17.932;2023-09-07T03:56:02;30.90;;;11.90;;
79369;SDS011;68835;53.096;17.932;2023-09-07T03:58:30;37.10;;;12.60;;
79369;SDS011;68835;53.096;17.932;2023-09-07T04:00:58;27.90;;;11.20;;
79369;SDS011;68835;53.096;17.932;2023-09-07T04:03:27;27.00;;;10.80;;
79369;SDS011;68835;53.096;17.932;2023-09-07T04:05:54;26.80;;;11.00;;
79369;SDS011;68835;53.096;17.932;2023-09-07T04:08:22;32.30;;;10.50;;
79369;SDS011;68835;53.096;17.932;2023-09-07T04:13:17;28.80;;;10.30;;
79369;SDS011;68835;53.096;17.932;2023-09-07T04:18:12;28.30;;;11.10;;
79369;SDS011;68835;53.096;17.932;2023-09-07T04:20:42;32.30;;;11.60;;
79369;SDS011;68835;53.096;17.932;2023-09-07T04:23:12;28.40;;;11.70;;
79369;SDS011;68835;53.096;17.932;2023-09-07T04:25:40;29.00;;;11.90;;
79369;SDS011;68835;53.096;17.932;2023-09-07T04:28:07;26.50;;;9.60;;
79369;SDS011;68835;53.096;17.932;2023-09-07T04:30:39;26.70;;;12.20;;
79369;SDS011;68835;53.096;17.932;2023-09-07T04:33:07;26.60;;;10.10;;
79369;SDS011;68835;53.096;17.932;2023-09-07T04:35:35;26.60;;;11.00;;
79369;SDS011;68835;53.096;17.932;2023-09-07T04:38:03;21.90;;;10.20;;
79369;SDS011;68835;53.096;17.932;2023-09-07T04:40:32;23.90;;;10.20;;
79369;SDS011;68835;53.096;17.932;2023-09-07T04:43:00;26.50;;;10.00;;
79369;SDS011;68835;53.096;17.932;2023-09-07T04:45:27;21.80;;;9.80;;
79369;SDS011;68835;53.096;17.932;2023-09-07T04:47:55;24.40;;;10.70;;
79369;SDS011;68835;53.096;17.932;2023-09-07T04:50:22;26.40;;;11.30;;
79369;SDS011;68835;53.096;17.932;2023-09-07T04:55:17;19.90;;;8.70;;
79369;SDS011;68835;53.096;17.932;2023-09-07T04:57:44;20.90;;;9.00;;
79369;SDS011;68835;53.096;17.932;2023-09-07T05:00:12;19.90;;;8.70;;
79369;SDS011;68835;53.096;17.932;2023-09-07T05:02:39;20.00;;;9.30;;
79369;SDS011;68835;53.096;17.932;2023-09-07T05:05:09;19.10;;;9.40;;
79369;SDS011;68835;53.096;17.932;2023-09-07T05:07:37;19.90;;;9.00;;
79369;SDS011;68835;53.096;17.932;2023-09-07T05:10:05;17.40;;;8.90;;
79369;SDS011;68835;53.096;17.932;2023-09-07T05:12:35;23.00;;;10.90;;
79369;SDS011;68835;53.096;17.932;2023-09-07T05:15:03;22.70;;;9.50;;
79369;SDS011;68835;53.096;17.932;2023-09-07T05:17:33;23.10;;;8.90;;
79369;SDS011;68835;53.096;17.932;2023-09-07T05:22:28;17.70;;;7.90;;
79369;SDS011;68835;53.096;17.932;2023-09-07T05:24:55;22.80;;;9.10;;
79369;SDS011;68835;53.096;17.932;2023-09-07T05:27:23;21.50;;;8.60;;
79369;SDS011;68835;53.096;17.932;2023-09-07T05:29:50;23.20;;;9.60;;
79369;SDS011;68835;53.096;17.932;2023-09-07T05:32:17;18.30;;;8.70;;
79369;SDS011;68835;53.096;17.932;2023-09-07T05:34:44;23.60;;;9.20;;
79369;SDS011;68835;53.096;17.932;2023-09-07T05:37:12;22.10;;;9.50;;
79369;SDS011;68835;53.096;17.932;2023-09-07T05:39:40;19.70;;;9.70;;
79369;SDS011;68835;53.096;17.932;2023-09-07T05:42:07;23.10;;;9.40;;
79369;SDS011;68835;53.096;17.932;2023-09-07T05:47:03;18.40;;;8.10;;
79369;SDS011;68835;53.096;17.932;2023-09-07T05:49:31;20.20;;;9.10;;
79369;SDS011;68835;53.096;17.932;2023-09-07T05:51:59;18.10;;;8.60;;
79369;SDS011;68835;53.096;17.932;2023-09-07T05:54:27;19.70;;;8.80;;
79369;SDS011;68835;53.096;17.932;2023-09-07T05:59:21;19.60;;;8.90;;
79369;SDS011;68835;53.096;17.932;2023-09-07T06:01:48;22.00;;;9.70;;
79369;SDS011;68835;53.096;17.932;2023-09-07T06:06:43;24.80;;;9.20;;
79369;SDS011;68835;53.096;17.932;2023-09-07T06:11:37;23.60;;;10.00;;
79369;SDS011;68835;53.096;17.932;2023-09-07T06:14:06;21.10;;;8.60;;
79369;SDS011;68835;53.096;17.932;2023-09-07T06:16:33;24.70;;;11.20;;
79369;SDS011;68835;53.096;17.932;2023-09-07T06:19:02;20.70;;;9.50;;
79369;SDS011;68835;53.096;17.932;2023-09-07T06:21:29;25.40;;;10.40;;
79369;SDS011;68835;53.096;17.932;2023-09-07T06:23:56;21.50;;;8.80;;
79369;SDS011;68835;53.096;17.932;2023-09-07T06:28:52;23.10;;;9.40;;
79369;SDS011;68835;53.096;17.932;2023-09-07T06:33:46;27.10;;;11.30;;
79369;SDS011;68835;53.096;17.932;2023-09-07T06:38:41;28.30;;;10.80;;
79369;SDS011;68835;53.096;17.932;2023-09-07T06:41:09;28.10;;;10.10;;
79369;SDS011;68835;53.096;17.932;2023-09-07T06:43:37;26.20;;;10.70;;
79369;SDS011;68835;53.096;17.932;2023-09-07T06:46:07;23.40;;;9.50;;
79369;SDS011;68835;53.096;17.932;2023-09-07T06:48:36;27.60;;;11.70;;
79369;SDS011;68835;53.096;17.932;2023-09-07T06:51:04;25.80;;;10.60;;
79369;SDS011;68835;53.096;17.932;2023-09-07T06:53:33;22.30;;;11.00;;
79369;SDS011;68835;53.096;17.932;2023-09-07T06:56:01;26.30;;;11.80;;
79369;SDS011;68835;53.096;17.932;2023-09-07T06:58:30;24.30;;;10.30;;
79369;SDS011;68835;53.096;17.932;2023-09-07T07:00:59;24.60;;;10.20;;
79369;SDS011;68835;53.096;17.932;2023-09-07T07:03:28;24.20;;;10.90;;
79369;SDS011;68835;53.096;17.932;2023-09-07T07:05:57;20.80;;;10.00;;
79369;SDS011;68835;53.096;17.932;2023-09-07T07:08:25;19.40;;;9.90;;
79369;SDS011;68835;53.096;17.932;2023-09-07T07:10:52;20.50;;;9.00;;
79369;SDS011;68835;53.096;17.932;2023-09-07T07:13:20;23.10;;;10.40;;
79369;SDS011;68835;53.096;17.932;2023-09-07T07:15:47;22.70;;;10.60;;
79369;SDS011;68835;53.096;17.932;2023-09-07T07:18:14;23.50;;;9.50;;
79369;SDS011;68835;53.096;17.932;2023-09-07T07:20:42;22.60;;;10.40;;
79369;SDS011;68835;53.096;17.932;2023-09-07T07:23:11;21.80;;;10.10;;
79369;SDS011;68835;53.096;17.932;2023-09-07T07:25:39;23.40;;;11.00;;
79369;SDS011;68835;53.096;17.932;2023-09-07T07:28:07;21.90;;;10.20;;
79369;SDS011;68835;53.096;17.932;2023-09-07T07:30:35;22.80;;;8.70;;
79369;SDS011;68835;53.096;17.932;2023-09-07T07:33:05;21.70;;;9.60;;
79369;SDS011;68835;53.096;17.932;2023-09-07T07:35:33;21.90;;;10.80;;
79369;SDS011;68835;53.096;17.932;2023-09-07T07:38:02;20.50;;;9.40;;
79369;SDS011;68835;53.096;17.932;2023-09-07T07:40:31;24.20;;;9.90;;
79369;SDS011;68835;53.096;17.932;2023-09-07T07:42:59;18.40;;;8.60;;
79369;SDS011;68835;53.096;17.932;2023-09-07T07:45:27;19.60;;;8.80;;
79369;SDS011;68835;53.096;17.932;2023-09-07T07:47:54;18.20;;;9.50;;
79369;SDS011;68835;53.096;17.932;2023-09-07T07:50:22;20.80;;;9.30;;
79369;SDS011;68835;53.096;17.932;2023-09-07T07:52:49;19.70;;;10.50;;
79369;SDS011;68835;53.096;17.932;2023-09-07T07:55:17;23.70;;;11.10;;
79369;SDS011;68835;53.096;17.932;2023-09-07T07:57:44;19.20;;;9.70;;
79369;SDS011;68835;53.096;17.932;2023-09-07T08:00:12;21.00;;;9.60;;
79369;SDS011;68835;53.096;17.932;2023-09-07T08:02:46;21.10;;;9.80;;
79369;SDS011;68835;53.096;17.932;2023-09-07T08:05:14;17.20;;;7.90;;
79369;SDS011;68835;53.096;17.932;2023-09-07T08:07:41;17.00;;;9.20;;
79369;SDS011;68835;53.096;17.932;2023-09-07T08:10:09;19.00;;;9.20;;
79369;SDS011;68835;53.096;17.932;2023-09-07T08:12:36;15.90;;;8.40;;
79369;SDS011;68835;53.096;17.932;2023-09-07T08:15:04;16.10;;;7.80;;
79369;SDS011;68835;53.096;17.932;2023-09-07T08:17:32;17.40;;;9.40;;
79369;SDS011;68835;53.096;17.932;2023-09-07T08:19:59;16.90;;;8.10;;
79369;SDS011;68835;53.096;17.932;2023-09-07T08:22:27;20.00;;;8.50;;
79369;SDS011;68835;53.096;17.932;2023-09-07T08:24:55;18.80;;;9.30;;
79369;SDS011;68835;53.096;17.932;2023-09-07T08:27:23;18.00;;;9.40;;
79369;SDS011;68835;53.096;17.932;2023-09-07T08:29:53;15.50;;;7.80;;
79369;SDS011;68835;53.096;17.932;2023-09-07T08:32:21;16.20;;;7.70;;
79369;SDS011;68835;53.096;17.932;2023-09-07T08:34:49;14.60;;;8.30;;
79369;SDS011;68835;53.096;17.932;2023-09-07T08:37:17;10.20;;;6.10;;
79369;SDS011;68835;53.096;17.932;2023-09-07T08:39:47;16.90;;;8.10;;
79369;SDS011;68835;53.096;17.932;2023-09-07T08:42:15;16.50;;;8.70;;
79369;SDS011;68835;53.096;17.932;2023-09-07T08:44:42;16.50;;;8.60;;
79369;SDS011;68835;53.096;17.932;2023-09-07T08:47:13;19.20;;;8.90;;
79369;SDS011;68835;53.096;17.932;2023-09-07T08:49:42;11.50;;;7.70;;
79369;SDS011;68835;53.096;17.932;2023-09-07T08:52:12;13.20;;;7.30;;
79369;SDS011;68835;53.096;17.932;2023-09-07T08:54:42;14.90;;;7.70;;
79369;SDS011;68835;53.096;17.932;2023-09-07T08:57:10;16.40;;;7.60;;
79369;SDS011;68835;53.096;17.932;2023-09-07T08:59:38;11.70;;;7.10;;
79369;SDS011;68835;53.096;17.932;2023-09-07T09:02:07;12.50;;;7.20;;
79369;SDS011;68835;53.096;17.932;2023-09-07T09:04:37;15.60;;;7.90;;
79369;SDS011;68835;53.096;17.932;2023-09-07T09:07:06;11.50;;;7.20;;
79369;SDS011;68835;53.096;17.932;2023-09-07T09:09:34;14.20;;;7.00;;
79369;SDS011;68835;53.096;17.932;2023-09-07T09:12:08;14.00;;;7.10;;
79369;SDS011;68835;53.096;17.932;2023-09-07T09:14:36;12.80;;;7.60;;
79369;SDS011;68835;53.096;17.932;2023-09-07T09:17:03;14.00;;;7.90;;
79369;SDS011;68835;53.096;17.932;2023-09-07T09:19:34;10.80;;;6.30;;
79369;SDS011;68835;53.096;17.932;2023-09-07T09:22:02;11.30;;;6.70;;
79369;SDS011;68835;53.096;17.932;2023-09-07T09:24:33;14.50;;;7.80;;
79369;SDS011;68835;53.096;17.932;2023-09-07T09:27:02;10.80;;;6.50;;
79369;SDS011;68835;53.096;17.932;2023-09-07T09:29:34;14.40;;;7.10;;
79369;SDS011;68835;53.096;17.932;2023-09-07T09:32:06;10.40;;;6.00;;
79369;SDS011;68835;53.096;17.932;2023-09-07T09:34:34;12.20;;;6.80;;
79369;SDS011;68835;53.096;17.932;2023-09-07T09:37:03;13.70;;;6.80;;
79369;SDS011;68835;53.096;17.932;2023-09-07T09:39:31;12.20;;;7.50;;
79369;SDS011;68835;53.096;17.932;2023-09-07T09:41:58;11.10;;;6.30;;
79369;SDS011;68835;53.096;17.932;2023-09-07T09:44:26;11.20;;;6.20;;
79369;SDS011;68835;53.096;17.932;2023-09-07T09:46:56;15.40;;;7.00;;
79369;SDS011;68835;53.096;17.932;2023-09-07T09:49:25;10.40;;;6.70;;
79369;SDS011;68835;53.096;17.932;2023-09-07T09:51:54;10.00;;;6.40;;
79369;SDS011;68835;53.096;17.932;2023-09-07T09:54:25;15.30;;;6.80;;
79369;SDS011;68835;53.096;17.932;2023-09-07T09:56:54;11.60;;;5.60;;
79369;SDS011;68835;53.096;17.932;2023-09-07T09:59:22;11.20;;;6.80;;
79369;SDS011;68835;53.096;17.932;2023-09-07T10:01:49;9.90;;;6.30;;
79369;SDS011;68835;53.096;17.932;2023-09-07T10:04:20;9.10;;;5.90;;
79369;SDS011;68835;53.096;17.932;2023-09-07T10:06:50;11.30;;;6.20;;
79369;SDS011;68835;53.096;17.932;2023-09-07T10:09:22;8.30;;;5.60;;
79369;SDS011;68835;53.096;17.932;2023-09-07T10:11:53;12.50;;;6.50;;
79369;SDS011;68835;53.096;17.932;2023-09-07T10:14:21;8.60;;;6.70;;
79369;SDS011;68835;53.096;17.932;2023-09-07T10:16:50;9.10;;;6.20;;
79369;SDS011;68835;53.096;17.932;2023-09-07T10:19:20;20.50;;;7.40;;
79369;SDS011;68835;53.096;17.932;2023-09-07T10:21:49;13.30;;;6.40;;
79369;SDS011;68835;53.096;17.932;2023-09-07T10:24:25;11.60;;;6.20;;
79369;SDS011;68835;53.096;17.932;2023-09-07T10:27:00;10.10;;;6.20;;
79369;SDS011;68835;53.096;17.932;2023-09-07T10:29:39;10.90;;;6.40;;
79369;SDS011;68835;53.096;17.932;2023-09-07T10:32:12;8.30;;;5.10;;
79369;SDS011;68835;53.096;17.932;2023-09-07T10:34:41;11.50;;;6.00;;
79369;SDS011;68835;53.096;17.932;2023-09-07T10:37:13;9.10;;;6.10;;
79369;SDS011;68835;53.096;17.932;2023-09-07T10:39:43;11.60;;;5.70;;
79369;SDS011;68835;53.096;17.932;2023-09-07T10:42:21;24.00;;;6.30;;
79369;SDS011;68835;53.096;17.932;2023-09-07T10:44:50;7.40;;;5.10;;
79369;SDS011;68835;53.096;17.932;2023-09-07T10:47:18;9.30;;;6.30;;
79369;SDS011;68835;53.096;17.932;2023-09-07T10:49:46;10.50;;;6.10;;
79369;SDS011;68835;53.096;17.932;2023-09-07T10:52:14;9.50;;;5.20;;
79369;SDS011;68835;53.096;17.932;2023-09-07T10:54:42;7.80;;;5.50;;
79369;SDS011;68835;53.096;17.932;2023-09-07T10:57:10;13.00;;;5.90;;
79369;SDS011;68835;53.096;17.932;2023-09-07T10:59:44;9.10;;;5.90;;
79369;SDS011;68835;53.096;17.932;2023-09-07T11:02:13;8.20;;;5.80;;
79369;SDS011;68835;53.096;17.932;2023-09-07T11:04:42;9.90;;;5.50;;
79369;SDS011;68835;53.096;17.932;2023-09-07T11:07:09;11.70;;;5.70;;
79369;SDS011;68835;53.096;17.932;2023-09-07T11:09:43;10.50;;;4.80;;
79369;SDS011;68835;53.096;17.932;2023-09-07T11:12:14;10.50;;;5.50;;
79369;SDS011;68835;53.096;17.932;2023-09-07T11:14:48;8.00;;;4.70;;
79369;SDS011;68835;53.096;17.932;2023-09-07T11:17:15;6.10;;;4.80;;
79369;SDS011;68835;53.096;17.932;2023-09-07T11:19:43;8.50;;;5.10;;
79369;SDS011;68835;53.096;17.932;2023-09-07T11:22:11;7.20;;;4.70;;
79369;SDS011;68835;53.096;17.932;2023-09-07T11:24:39;11.60;;;5.20;;
79369;SDS011;68835;53.096;17.932;2023-09-07T11:27:08;7.80;;;4.80;;
79369;SDS011;68835;53.096;17.932;2023-09-07T11:29:35;6.90;;;5.00;;
79369;SDS011;68835;53.096;17.932;2023-09-07T11:32:06;8.90;;;4.90;;
79369;SDS011;68835;53.096;17.932;2023-09-07T11:34:51;7.30;;;4.80;;
79369;SDS011;68835;53.096;17.932;2023-09-07T11:37:22;8.70;;;5.10;;
79369;SDS011;68835;53.096;17.932;2023-09-07T11:39:51;7.30;;;5.10;;
79369;SDS011;68835;53.096;17.932;2023-09-07T11:42:18;6.00;;;4.70;;
79369;SDS011;68835;53.096;17.932;2023-09-07T11:44:46;11.20;;;4.90;;
79369;SDS011;68835;53.096;17.932;2023-09-07T11:47:13;12.40;;;5.10;;
79369;SDS011;68835;53.096;17.932;2023-09-07T11:49:41;9.00;;;4.90;;
79369;SDS011;68835;53.096;17.932;2023-09-07T11:52:09;7.60;;;4.80;;
79369;SDS011;68835;53.096;17.932;2023-09-07T11:54:36;12.50;;;5.00;;
79369;SDS011;68835;53.096;17.932;2023-09-07T11:57:04;11.20;;;4.80;;
79369;SDS011;68835;53.096;17.932;2023-09-07T11:59:31;9.10;;;5.90;;
79369;SDS011;68835;53.096;17.932;2023-09-07T12:01:59;7.80;;;5.40;;
79369;SDS011;68835;53.096;17.932;2023-09-07T12:04:27;5.30;;;4.10;;
79369;SDS011;68835;53.096;17.932;2023-09-07T12:06:54;6.90;;;4.50;;
79369;SDS011;68835;53.096;17.932;2023-09-07T12:09:22;7.60;;;5.20;;
79369;SDS011;68835;53.096;17.932;2023-09-07T12:11:49;6.90;;;5.00;;
79369;SDS011;68835;53.096;17.932;2023-09-07T12:14:16;11.40;;;5.20;;
79369;SDS011;68835;53.096;17.932;2023-09-07T12:16:44;6.30;;;4.50;;
79369;SDS011;68835;53.096;17.932;2023-09-07T12:19:11;8.60;;;4.20;;
79369;SDS011;68835;53.096;17.932;2023-09-07T12:21:38;5.60;;;4.70;;
79369;SDS011;68835;53.096;17.932;2023-09-07T12:24:06;7.60;;;5.00;;
79369;SDS011;68835;53.096;17.932;2023-09-07T12:26:33;6.00;;;4.40;;
79369;SDS011;68835;53.096;17.932;2023-09-07T12:29:01;7.50;;;4.80;;
79369;SDS011;68835;53.096;17.932;2023-09-07T12:31:28;6.60;;;4.80;;
79369;SDS011;68835;53.096;17.932;2023-09-07T12:33:58;6.10;;;4.70;;
79369;SDS011;68835;53.096;17.932;2023-09-07T12:36:25;8.30;;;5.10;;
79369;SDS011;68835;53.096;17.932;2023-09-07T12:38:56;8.50;;;5.10;;
79369;SDS011;68835;53.096;17.932;2023-09-07T12:41:29;6.90;;;4.70;;
79369;SDS011;68835;53.096;17.932;2023-09-07T12:43:57;7.50;;;5.00;;
79369;SDS011;68835;53.096;17.932;2023-09-07T12:46:25;9.30;;;5.40;;
79369;SDS011;68835;53.096;17.932;2023-09-07T12:48:52;11.30;;;5.30;;
79369;SDS011;68835;53.096;17.932;2023-09-07T12:51:19;7.30;;;4.50;;
79369;SDS011;68835;53.096;17.932;2023-09-07T12:53:47;6.60;;;4.70;;
79369;SDS011;68835;53.096;17.932;2023-09-07T12:56:14;6.30;;;4.50;;
79369;SDS011;68835;53.096;17.932;2023-09-07T12:58:42;8.50;;;5.00;;
79369;SDS011;68835;53.096;17.932;2023-09-07T13:01:10;6.90;;;4.60;;
79369;SDS011;68835;53.096;17.932;2023-09-07T13:03:37;9.60;;;4.70;;
79369;SDS011;68835;53.096;17.932;2023-09-07T13:06:05;6.20;;;5.20;;
79369;SDS011;68835;53.096;17.932;2023-09-07T13:08:32;5.50;;;4.30;;
79369;SDS011;68835;53.096;17.932;2023-09-07T13:11:00;7.70;;;4.60;;
79369;SDS011;68835;53.096;17.932;2023-09-07T13:13:28;7.70;;;4.70;;
79369;SDS011;68835;53.096;17.932;2023-09-07T13:15:58;6.50;;;4.40;;
79369;SDS011;68835;53.096;17.932;2023-09-07T13:18:25;7.80;;;4.50;;
79369;SDS011;68835;53.096;17.932;2023-09-07T13:20:53;7.10;;;4.80;;
79369;SDS011;68835;53.096;17.932;2023-09-07T13:23:29;6.50;;;4.80;;
79369;SDS011;68835;53.096;17.932;2023-09-07T13:25:56;6.50;;;5.20;;
79369;SDS011;68835;53.096;17.932;2023-09-07T13:28:24;7.90;;;4.80;;
79369;SDS011;68835;53.096;17.932;2023-09-07T13:30:52;7.90;;;5.10;;
79369;SDS011;68835;53.096;17.932;2023-09-07T13:33:19;7.80;;;4.90;;
79369;SDS011;68835;53.096;17.932;2023-09-07T13:35:47;6.70;;;4.60;;
79369;SDS011;68835;53.096;17.932;2023-09-07T13:38:14;6.80;;;4.60;;
79369;SDS011;68835;53.096;17.932;2023-09-07T13:40:41;6.70;;;4.50;;
79369;SDS011;68835;53.096;17.932;2023-09-07T13:43:09;6.90;;;5.40;;
79369;SDS011;68835;53.096;17.932;2023-09-07T13:45:37;7.80;;;5.10;;
79369;SDS011;68835;53.096;17.932;2023-09-07T13:48:04;6.40;;;4.90;;
79369;SDS011;68835;53.096;17.932;2023-09-07T13:50:32;7.90;;;4.70;;
79369;SDS011;68835;53.096;17.932;2023-09-07T13:52:59;6.90;;;4.50;;
79369;SDS011;68835;53.096;17.932;2023-09-07T13:55:26;6.90;;;4.50;;
79369;SDS011;68835;53.096;17.932;2023-09-07T13:57:54;5.60;;;4.30;;
79369;SDS011;68835;53.096;17.932;2023-09-07T14:00:21;10.00;;;5.00;;
79369;SDS011;68835;53.096;17.932;2023-09-07T14:02:54;6.00;;;4.10;;
79369;SDS011;68835;53.096;17.932;2023-09-07T14:05:21;5.20;;;3.70;;
79369;SDS011;68835;53.096;17.932;2023-09-07T14:07:48;11.20;;;5.70;;
79369;SDS011;68835;53.096;17.932;2023-09-07T14:10:16;6.80;;;4.70;;
79369;SDS011;68835;53.096;17.932;2023-09-07T14:12:43;10.80;;;5.00;;
79369;SDS011;68835;53.096;17.932;2023-09-07T14:15:11;7.20;;;5.40;;
79369;SDS011;68835;53.096;17.932;2023-09-07T14:17:38;9.20;;;4.80;;
79369;SDS011;68835;53.096;17.932;2023-09-07T14:20:06;8.40;;;5.50;;
79369;SDS011;68835;53.096;17.932;2023-09-07T14:22:33;6.60;;;4.90;;
79369;SDS011;68835;53.096;17.932;2023-09-07T14:25:01;5.50;;;4.40;;
79369;SDS011;68835;53.096;17.932;2023-09-07T14:27:29;7.40;;;4.80;;
79369;SDS011;68835;53.096;17.932;2023-09-07T14:29:57;8.70;;;5.50;;
79369;SDS011;68835;53.096;17.932;2023-09-07T14:32:24;12.00;;;5.30;;
79369;SDS011;68835;53.096;17.932;2023-09-07T14:34:51;7.90;;;4.10;;
79369;SDS011;68835;53.096;17.932;2023-09-07T14:37:19;8.20;;;5.20;;
79369;SDS011;68835;53.096;17.932;2023-09-07T14:39:46;6.40;;;4.60;;
79369;SDS011;68835;53.096;17.932;2023-09-07T14:42:17;7.10;;;4.50;;
79369;SDS011;68835;53.096;17.932;2023-09-07T14:44:46;8.00;;;5.00;;
79369;SDS011;68835;53.096;17.932;2023-09-07T14:47:14;6.90;;;4.30;;
79369;SDS011;68835;53.096;17.932;2023-09-07T14:49:41;9.20;;;4.90;;
79369;SDS011;68835;53.096;17.932;2023-09-07T14:52:09;6.70;;;4.60;;
79369;SDS011;68835;53.096;17.932;2023-09-07T14:54:38;12.20;;;4.60;;
79369;SDS011;68835;53.096;17.932;2023-09-07T14:57:07;6.50;;;4.80;;
79369;SDS011;68835;53.096;17.932;2023-09-07T14:59:34;7.10;;;5.00;;
79369;SDS011;68835;53.096;17.932;2023-09-07T15:02:02;9.40;;;4.80;;
79369;SDS011;68835;53.096;17.932;2023-09-07T15:04:30;8.20;;;5.10;;
79369;SDS011;68835;53.096;17.932;2023-09-07T15:06:58;7.70;;;4.70;;
79369;SDS011;68835;53.096;17.932;2023-09-07T15:09:26;8.10;;;4.80;;
79369;SDS011;68835;53.096;17.932;2023-09-07T15:11:55;8.50;;;5.10;;
79369;SDS011;68835;53.096;17.932;2023-09-07T15:14:23;8.80;;;4.70;;
79369;SDS011;68835;53.096;17.932;2023-09-07T15:16:51;6.80;;;4.60;;
79369;SDS011;68835;53.096;17.932;2023-09-07T15:19:18;7.20;;;5.00;;
79369;SDS011;68835;53.096;17.932;2023-09-07T15:21:47;9.90;;;4.90;;
79369;SDS011;68835;53.096;17.932;2023-09-07T15:24:14;7.80;;;4.80;;
79369;SDS011;68835;53.096;17.932;2023-09-07T15:26:42;7.10;;;4.80;;
79369;SDS011;68835;53.096;17.932;2023-09-07T15:29:11;6.80;;;5.00;;
79369;SDS011;68835;53.096;17.932;2023-09-07T15:31:39;6.40;;;4.20;;
79369;SDS011;68835;53.096;17.932;2023-09-07T15:34:07;7.10;;;5.40;;
79369;SDS011;68835;53.096;17.932;2023-09-07T15:36:35;8.50;;;4.90;;
79369;SDS011;68835;53.096;17.932;2023-09-07T15:39:04;9.00;;;5.20;;